DESBT EDDH-EDDH
Flight info
| Callsign | DESBT |
|---|---|
| Flight time | 0h 11m |
| Altitude | 5000 |
| Route | AMLUH2G/33 AMLUH |
| Aircraft | P28A/L-SDGRY/S |
Departure
| Time | 2026-05-04 14:58 |
|---|---|
| Airport | Hamburg Helmut Schmidt Airport (EDDH) |
Arrival
| Time | 2026-05-04 15:10 |
|---|---|
| Airport | Hamburg Helmut Schmidt Airport (EDDH) |
| Time | Latitude | Longitude | Altitude | Speed | Heading |
|---|---|---|---|---|---|
| 2026-05-04 14:44 | 53.62622 | 9.98807 | 41 ft | 0 kts | 63° |
| 2026-05-04 14:54 | 53.62619 | 9.98786 | 41 ft | 4 kts | 239° |
| 2026-05-04 14:54 | 53.62652 | 9.98697 | 41 ft | 13 kts | 334° |
| 2026-05-04 14:54 | 53.62686 | 9.98669 | 41 ft | 0 kts | 333° |
| 2026-05-04 14:55 | 53.62687 | 9.98668 | 41 ft | 2 kts | 333° |
| 2026-05-04 14:55 | 53.62735 | 9.98651 | 41 ft | 10 kts | 37° |
| 2026-05-04 14:56 | 53.62798 | 9.98769 | 41 ft | 21 kts | 49° |
| 2026-05-04 14:56 | 53.62873 | 9.98923 | 41 ft | 25 kts | 47° |
| 2026-05-04 14:56 | 53.62997 | 9.99174 | 42 ft | 27 kts | 51° |
| 2026-05-04 14:56 | 53.63123 | 9.99306 | 42 ft | 18 kts | 12° |
| 2026-05-04 14:57 | 53.63149 | 9.99323 | 41 ft | 0 kts | 10° |
| 2026-05-04 14:57 | 53.63150 | 9.99323 | 41 ft | 2 kts | 9° |
| 2026-05-04 14:57 | 53.63262 | 9.99360 | 41 ft | 26 kts | 3° |
| 2026-05-04 14:57 | 53.63475 | 9.99220 | 42 ft | 58 kts | 333° |
| 2026-05-04 14:58 | 53.63897 | 9.98860 | 274 ft | 73 kts | 330° |
| 2026-05-04 14:58 | 53.64393 | 9.98426 | 520 ft | 91 kts | 331° |
| 2026-05-04 14:58 | 53.65006 | 9.97908 | 732 ft | 102 kts | 332° |
| 2026-05-04 14:58 | 53.65642 | 9.97365 | 1002 ft | 105 kts | 331° |
| 2026-05-04 14:59 | 53.66292 | 9.96803 | 1267 ft | 108 kts | 330° |
| 2026-05-04 14:59 | 53.66983 | 9.96211 | 1511 ft | 114 kts | 331° |
| 2026-05-04 14:59 | 53.68441 | 9.94960 | 2049 ft | 122 kts | 330° |
| 2026-05-04 15:00 | 53.69273 | 9.94635 | 2294 ft | 126 kts | 354° |
| 2026-05-04 15:00 | 53.70146 | 9.94673 | 2549 ft | 124 kts | 354° |
| 2026-05-04 15:00 | 53.71008 | 9.94681 | 2802 ft | 125 kts | 354° |
| 2026-05-04 15:01 | 53.72487 | 9.96002 | 3283 ft | 136 kts | 63° |
| 2026-05-04 15:01 | 53.72823 | 9.97492 | 3528 ft | 135 kts | 65° |
| 2026-05-04 15:01 | 53.73180 | 9.98938 | 3772 ft | 136 kts | 63° |
| 2026-05-04 15:01 | 53.73557 | 10.00395 | 4018 ft | 135 kts | 63° |
| 2026-05-04 15:02 | 53.73932 | 10.01827 | 4273 ft | 133 kts | 63° |
| 2026-05-04 15:02 | 53.74191 | 10.03308 | 4517 ft | 133 kts | 91° |
| 2026-05-04 15:02 | 53.73875 | 10.04723 | 4756 ft | 127 kts | 126° |
| 2026-05-04 15:02 | 53.73421 | 10.05998 | 4985 ft | 129 kts | 124° |
| 2026-05-04 15:03 | 53.72937 | 10.07407 | 4923 ft | 149 kts | 123° |
| 2026-05-04 15:03 | 53.72343 | 10.08911 | 4826 ft | 157 kts | 133° |
| 2026-05-04 15:03 | 53.71683 | 10.10363 | 4905 ft | 155 kts | 127° |
| 2026-05-04 15:03 | 53.71218 | 10.11995 | 4852 ft | 152 kts | 109° |
| 2026-05-04 15:04 | 53.71117 | 10.13729 | 4777 ft | 151 kts | 73° |
| 2026-05-04 15:04 | 53.71751 | 10.14996 | 4515 ft | 136 kts | 28° |
| 2026-05-04 15:04 | 53.72403 | 10.16109 | 4294 ft | 138 kts | 60° |
| 2026-05-04 15:04 | 53.72417 | 10.17676 | 3916 ft | 138 kts | 126° |
| 2026-05-04 15:05 | 53.71596 | 10.17783 | 3576 ft | 133 kts | 226° |
| 2026-05-04 15:05 | 53.71044 | 10.16529 | 3019 ft | 132 kts | 242° |
| 2026-05-04 15:05 | 53.70628 | 10.15180 | 2611 ft | 123 kts | 243° |
| 2026-05-04 15:05 | 53.70176 | 10.13979 | 2117 ft | 124 kts | 243° |
| 2026-05-04 15:06 | 53.69772 | 10.12787 | 1787 ft | 114 kts | 244° |
| 2026-05-04 15:06 | 53.69306 | 10.11693 | 1594 ft | 124 kts | 238° |
| 2026-05-04 15:06 | 53.68725 | 10.10422 | 1429 ft | 145 kts | 236° |
| 2026-05-04 15:07 | 53.67614 | 10.08252 | 1365 ft | 96 kts | 239° |
| 2026-05-04 15:07 | 53.67176 | 10.07317 | 1165 ft | 109 kts | 236° |
| 2026-05-04 15:07 | 53.66666 | 10.06236 | 1085 ft | 126 kts | 236° |
| 2026-05-04 15:07 | 53.66112 | 10.05173 | 975 ft | 110 kts | 233° |
| 2026-05-04 15:08 | 53.65651 | 10.04222 | 830 ft | 105 kts | 236° |
| 2026-05-04 15:08 | 53.65190 | 10.03224 | 658 ft | 104 kts | 236° |
| 2026-05-04 15:08 | 53.64751 | 10.02339 | 477 ft | 94 kts | 237° |
| 2026-05-04 15:08 | 53.64347 | 10.01522 | 352 ft | 90 kts | 231° |
| 2026-05-04 15:09 | 53.63966 | 10.00715 | 209 ft | 89 kts | 236° |
| 2026-05-04 15:09 | 53.63562 | 9.99898 | 70 ft | 85 kts | 236° |
| 2026-05-04 15:09 | 53.63250 | 9.99252 | 42 ft | 57 kts | 234° |
| 2026-05-04 15:10 | 53.62847 | 9.98515 | 39 ft | 20 kts | 207° |
| 2026-05-04 15:10 | 53.62725 | 9.98483 | 40 ft | 15 kts | 152° |
| 2026-05-04 15:10 | 53.62650 | 9.98700 | 41 ft | 23 kts | 151° |
| 2026-05-04 15:11 | 53.62613 | 9.98780 | 41 ft | 8 kts | 62° |
| 2026-05-04 15:11 | 53.62618 | 9.98799 | 41 ft | 0 kts | 61° |